sensor_id;sensor_type;location;lat;lon;timestamp;pressure;altitude;pressure_sealevel;temperature;humidity
70954;BME280;58618;47.490;8.736;2023-04-23T00:01:02;96075.25;;;10.96;100.00
70954;BME280;58618;47.490;8.736;2023-04-23T00:03:54;96077.56;;;10.98;100.00
70954;BME280;58618;47.490;8.736;2023-04-23T00:06:42;96070.47;;;10.90;100.00
70954;BME280;58618;47.490;8.736;2023-04-23T00:09:34;96075.44;;;11.00;100.00
70954;BME280;58618;47.490;8.736;2023-04-23T00:12:22;96074.47;;;10.96;100.00
70954;BME280;58618;47.490;8.736;2023-04-23T00:15:11;96082.31;;;10.91;100.00
70954;BME280;58618;47.490;8.736;2023-04-23T00:17:59;96085.94;;;10.90;100.00
70954;BME280;58618;47.490;8.736;2023-04-23T00:20:46;96076.19;;;10.87;100.00
70954;BME280;58618;47.490;8.736;2023-04-23T00:23:34;96084.97;;;10.86;100.00
70954;BME280;58618;47.490;8.736;2023-04-23T00:26:22;96086.53;;;10.87;100.00
70954;BME280;58618;47.490;8.736;2023-04-23T00:29:10;96088.59;;;10.85;100.00
70954;BME280;58618;47.490;8.736;2023-04-23T00:31:57;96080.75;;;10.76;100.00
70954;BME280;58618;47.490;8.736;2023-04-23T00:34:45;96092.03;;;10.80;100.00
70954;BME280;58618;47.490;8.736;2023-04-23T00:37:33;96095.47;;;10.76;100.00
70954;BME280;58618;47.490;8.736;2023-04-23T00:40:21;96093.81;;;10.66;100.00
70954;BME280;58618;47.490;8.736;2023-04-23T00:43:09;96096.50;;;10.75;100.00
70954;BME280;58618;47.490;8.736;2023-04-23T00:45:57;96100.91;;;10.74;100.00
70954;BME280;58618;47.490;8.736;2023-04-23T00:48:45;96094.00;;;10.70;100.00
70954;BME280;58618;47.490;8.736;2023-04-23T00:51:33;96104.47;;;10.78;100.00
70954;BME280;58618;47.490;8.736;2023-04-23T00:54:21;96106.75;;;10.80;100.00
70954;BME280;58618;47.490;8.736;2023-04-23T00:57:09;96106.06;;;10.74;100.00
70954;BME280;58618;47.490;8.736;2023-04-23T00:59:58;96105.22;;;10.79;100.00
70954;BME280;58618;47.490;8.736;2023-04-23T01:02:46;96102.63;;;10.79;100.00
70954;BME280;58618;47.490;8.736;2023-04-23T01:05:34;96110.00;;;10.72;100.00
70954;BME280;58618;47.490;8.736;2023-04-23T01:08:22;96112.66;;;10.67;100.00
70954;BME280;58618;47.490;8.736;2023-04-23T01:11:12;96114.53;;;10.61;100.00
70954;BME280;58618;47.490;8.736;2023-04-23T01:14:01;96108.03;;;10.64;100.00
70954;BME280;58618;47.490;8.736;2023-04-23T01:16:50;96102.97;;;10.58;100.00
70954;BME280;58618;47.490;8.736;2023-04-23T01:19:38;96118.84;;;10.66;100.00
70954;BME280;58618;47.490;8.736;2023-04-23T01:22:27;96115.59;;;10.74;100.00
70954;BME280;58618;47.490;8.736;2023-04-23T01:25:14;96117.84;;;10.80;100.00
70954;BME280;58618;47.490;8.736;2023-04-23T01:28:02;96117.66;;;10.77;100.00
70954;BME280;58618;47.490;8.736;2023-04-23T01:30:50;96111.91;;;10.80;100.00
70954;BME280;58618;47.490;8.736;2023-04-23T01:33:37;96110.66;;;10.77;100.00
70954;BME280;58618;47.490;8.736;2023-04-23T01:36:25;96120.22;;;10.77;100.00
70954;BME280;58618;47.490;8.736;2023-04-23T01:39:13;96125.47;;;10.72;100.00
70954;BME280;58618;47.490;8.736;2023-04-23T01:42:01;96123.44;;;10.69;100.00
70954;BME280;58618;47.490;8.736;2023-04-23T01:44:49;96122.97;;;10.67;100.00
70954;BME280;58618;47.490;8.736;2023-04-23T01:47:37;96133.28;;;10.67;100.00
70954;BME280;58618;47.490;8.736;2023-04-23T01:50:25;96133.97;;;10.53;100.00
70954;BME280;58618;47.490;8.736;2023-04-23T01:53:14;96134.47;;;10.55;100.00
70954;BME280;58618;47.490;8.736;2023-04-23T01:56:04;96130.50;;;10.44;100.00
70954;BME280;58618;47.490;8.736;2023-04-23T01:58:51;96137.19;;;10.45;100.00
70954;BME280;58618;47.490;8.736;2023-04-23T02:01:43;96136.84;;;10.52;100.00
70954;BME280;58618;47.490;8.736;2023-04-23T02:04:31;96139.09;;;10.40;100.00
70954;BME280;58618;47.490;8.736;2023-04-23T02:07:19;96135.63;;;10.31;100.00
70954;BME280;58618;47.490;8.736;2023-04-23T02:10:08;96135.94;;;10.24;100.00
70954;BME280;58618;47.490;8.736;2023-04-23T02:12:58;96131.91;;;10.18;100.00
70954;BME280;58618;47.490;8.736;2023-04-23T02:15:46;96125.66;;;10.00;100.00
70954;BME280;58618;47.490;8.736;2023-04-23T02:18:33;96120.16;;;10.07;100.00
70954;BME280;58618;47.490;8.736;2023-04-23T02:21:22;96119.97;;;10.03;100.00
70954;BME280;58618;47.490;8.736;2023-04-23T02:24:09;96136.41;;;10.07;100.00
70954;BME280;58618;47.490;8.736;2023-04-23T02:26:57;96145.38;;;10.10;100.00
70954;BME280;58618;47.490;8.736;2023-04-23T02:29:45;96141.56;;;10.07;100.00
70954;BME280;58618;47.490;8.736;2023-04-23T02:32:33;96139.38;;;9.96;100.00
70954;BME280;58618;47.490;8.736;2023-04-23T02:35:21;96135.00;;;9.96;100.00
70954;BME280;58618;47.490;8.736;2023-04-23T02:38:08;96142.97;;;9.95;100.00
70954;BME280;58618;47.490;8.736;2023-04-23T02:40:56;96138.84;;;9.99;100.00
70954;BME280;58618;47.490;8.736;2023-04-23T02:43:43;96140.13;;;9.96;100.00
70954;BME280;58618;47.490;8.736;2023-04-23T02:46:32;96132.81;;;9.85;100.00
70954;BME280;58618;47.490;8.736;2023-04-23T02:49:21;96132.69;;;9.95;100.00
70954;BME280;58618;47.490;8.736;2023-04-23T02:52:09;96131.19;;;9.89;100.00
70954;BME280;58618;47.490;8.736;2023-04-23T02:54:56;96136.72;;;10.01;100.00
70954;BME280;58618;47.490;8.736;2023-04-23T02:57:43;96133.75;;;9.94;100.00
70954;BME280;58618;47.490;8.736;2023-04-23T03:00:31;96124.25;;;9.89;100.00
70954;BME280;58618;47.490;8.736;2023-04-23T03:03:20;96121.25;;;9.82;100.00
70954;BME280;58618;47.490;8.736;2023-04-23T03:06:11;96122.88;;;9.73;100.00
70954;BME280;58618;47.490;8.736;2023-04-23T03:08:58;96118.69;;;9.82;100.00
70954;BME280;58618;47.490;8.736;2023-04-23T03:11:46;96129.06;;;9.96;100.00
70954;BME280;58618;47.490;8.736;2023-04-23T03:14:34;96131.09;;;9.99;100.00
70954;BME280;58618;47.490;8.736;2023-04-23T03:17:21;96126.56;;;9.91;100.00
70954;BME280;58618;47.490;8.736;2023-04-23T03:20:10;96111.78;;;9.78;100.00
70954;BME280;58618;47.490;8.736;2023-04-23T03:22:58;96121.09;;;9.73;100.00
70954;BME280;58618;47.490;8.736;2023-04-23T03:25:45;96118.56;;;9.68;100.00
70954;BME280;58618;47.490;8.736;2023-04-23T03:28:32;96109.81;;;9.69;100.00
70954;BME280;58618;47.490;8.736;2023-04-23T03:31:20;96116.50;;;9.70;100.00
70954;BME280;58618;47.490;8.736;2023-04-23T03:34:07;96112.66;;;9.68;100.00
70954;BME280;58618;47.490;8.736;2023-04-23T03:36:56;96116.22;;;9.72;100.00
70954;BME280;58618;47.490;8.736;2023-04-23T03:39:43;96113.66;;;9.72;100.00
70954;BME280;58618;47.490;8.736;2023-04-23T03:42:31;96112.00;;;9.81;100.00
70954;BME280;58618;47.490;8.736;2023-04-23T03:45:18;96116.88;;;9.83;100.00
70954;BME280;58618;47.490;8.736;2023-04-23T03:48:06;96107.84;;;10.04;100.00
70954;BME280;58618;47.490;8.736;2023-04-23T03:50:53;96112.06;;;9.95;100.00
70954;BME280;58618;47.490;8.736;2023-04-23T03:53:43;96106.25;;;10.08;100.00
70954;BME280;58618;47.490;8.736;2023-04-23T03:56:30;96107.63;;;9.82;100.00
70954;BME280;58618;47.490;8.736;2023-04-23T03:59:17;96115.81;;;9.84;100.00
70954;BME280;58618;47.490;8.736;2023-04-23T04:02:05;96122.38;;;9.95;100.00
70954;BME280;58618;47.490;8.736;2023-04-23T04:04:52;96127.00;;;9.98;100.00
70954;BME280;58618;47.490;8.736;2023-04-23T04:07:40;96109.28;;;9.72;100.00
70954;BME280;58618;47.490;8.736;2023-04-23T04:10:28;96120.44;;;9.87;100.00
70954;BME280;58618;47.490;8.736;2023-04-23T04:13:16;96119.78;;;9.95;100.00
70954;BME280;58618;47.490;8.736;2023-04-23T04:16:03;96127.81;;;9.93;100.00
70954;BME280;58618;47.490;8.736;2023-04-23T04:18:51;96115.28;;;9.87;100.00
70954;BME280;58618;47.490;8.736;2023-04-23T04:21:38;96109.91;;;9.83;100.00
70954;BME280;58618;47.490;8.736;2023-04-23T04:24:25;96111.34;;;9.70;100.00
70954;BME280;58618;47.490;8.736;2023-04-23T04:27:15;96108.28;;;9.68;100.00
70954;BME280;58618;47.490;8.736;2023-04-23T04:30:03;96096.28;;;9.83;100.00
70954;BME280;58618;47.490;8.736;2023-04-23T04:32:51;96097.94;;;9.92;100.00
70954;BME280;58618;47.490;8.736;2023-04-23T04:35:39;96095.22;;;9.84;100.00
70954;BME280;58618;47.490;8.736;2023-04-23T04:38:27;96100.34;;;9.84;100.00
70954;BME280;58618;47.490;8.736;2023-04-23T04:41:15;96102.16;;;9.64;100.00
70954;BME280;58618;47.490;8.736;2023-04-23T04:44:04;96089.91;;;9.56;100.00
70954;BME280;58618;47.490;8.736;2023-04-23T04:46:52;96094.72;;;9.82;100.00
70954;BME280;58618;47.490;8.736;2023-04-23T04:49:39;96098.47;;;9.89;100.00
70954;BME280;58618;47.490;8.736;2023-04-23T04:52:26;96086.09;;;9.72;100.00
70954;BME280;58618;47.490;8.736;2023-04-23T04:55:14;96095.78;;;9.81;100.00
70954;BME280;58618;47.490;8.736;2023-04-23T04:58:01;96098.34;;;9.81;100.00
70954;BME280;58618;47.490;8.736;2023-04-23T05:00:50;96102.19;;;10.02;100.00
70954;BME280;58618;47.490;8.736;2023-04-23T05:03:37;96092.84;;;10.06;100.00
70954;BME280;58618;47.490;8.736;2023-04-23T05:06:25;96099.75;;;10.10;100.00
70954;BME280;58618;47.490;8.736;2023-04-23T05:09:13;96100.78;;;9.91;100.00
70954;BME280;58618;47.490;8.736;2023-04-23T05:12:01;96091.59;;;9.85;100.00
70954;BME280;58618;47.490;8.736;2023-04-23T05:14:52;96096.22;;;9.88;100.00
70954;BME280;58618;47.490;8.736;2023-04-23T05:17:42;96098.34;;;9.99;100.00
70954;BME280;58618;47.490;8.736;2023-04-23T05:20:31;96100.19;;;9.99;100.00
70954;BME280;58618;47.490;8.736;2023-04-23T05:23:18;96106.13;;;10.18;100.00
70954;BME280;58618;47.490;8.736;2023-04-23T05:26:06;96100.25;;;10.31;100.00
70954;BME280;58618;47.490;8.736;2023-04-23T05:28:53;96087.44;;;10.26;100.00
70954;BME280;58618;47.490;8.736;2023-04-23T05:31:40;96088.53;;;10.25;100.00
70954;BME280;58618;47.490;8.736;2023-04-23T05:34:29;96101.31;;;10.49;100.00
70954;BME280;58618;47.490;8.736;2023-04-23T05:37:16;96093.09;;;10.28;100.00
70954;BME280;58618;47.490;8.736;2023-04-23T05:40:05;96112.03;;;10.37;100.00
70954;BME280;58618;47.490;8.736;2023-04-23T05:42:52;96102.38;;;10.29;100.00
70954;BME280;58618;47.490;8.736;2023-04-23T05:45:40;96097.97;;;10.30;100.00
70954;BME280;58618;47.490;8.736;2023-04-23T05:48:28;96099.03;;;10.29;100.00
70954;BME280;58618;47.490;8.736;2023-04-23T05:51:16;96099.78;;;10.29;100.00
70954;BME280;58618;47.490;8.736;2023-04-23T05:54:04;96089.13;;;10.17;100.00
70954;BME280;58618;47.490;8.736;2023-04-23T05:56:51;96094.72;;;10.24;100.00
70954;BME280;58618;47.490;8.736;2023-04-23T05:59:40;96096.44;;;10.29;100.00
70954;BME280;58618;47.490;8.736;2023-04-23T06:02:30;96100.22;;;10.36;100.00
70954;BME280;58618;47.490;8.736;2023-04-23T06:05:18;96100.53;;;10.48;100.00
70954;BME280;58618;47.490;8.736;2023-04-23T06:08:07;96089.81;;;10.41;100.00
70954;BME280;58618;47.490;8.736;2023-04-23T06:10:55;96092.63;;;10.58;100.00
70954;BME280;58618;47.490;8.736;2023-04-23T06:13:42;96103.13;;;10.81;100.00
70954;BME280;58618;47.490;8.736;2023-04-23T06:16:30;96103.03;;;10.86;100.00
70954;BME280;58618;47.490;8.736;2023-04-23T06:19:18;96097.41;;;10.84;100.00
70954;BME280;58618;47.490;8.736;2023-04-23T06:22:05;96111.97;;;11.07;100.00
70954;BME280;58618;47.490;8.736;2023-04-23T06:24:54;96095.56;;;11.30;100.00
70954;BME280;58618;47.490;8.736;2023-04-23T06:27:41;96106.94;;;11.29;100.00
70954;BME280;58618;47.490;8.736;2023-04-23T06:30:29;96103.31;;;11.58;100.00
70954;BME280;58618;47.490;8.736;2023-04-23T06:33:16;96103.59;;;11.70;100.00
70954;BME280;58618;47.490;8.736;2023-04-23T06:36:04;96096.31;;;11.72;100.00
70954;BME280;58618;47.490;8.736;2023-04-23T06:38:53;96090.97;;;11.68;100.00
70954;BME280;58618;47.490;8.736;2023-04-23T06:41:42;96089.06;;;11.47;100.00
70954;BME280;58618;47.490;8.736;2023-04-23T06:44:29;96079.88;;;11.40;100.00
70954;BME280;58618;47.490;8.736;2023-04-23T06:47:16;96081.78;;;11.49;100.00
70954;BME280;58618;47.490;8.736;2023-04-23T06:50:05;96072.22;;;11.35;100.00
70954;BME280;58618;47.490;8.736;2023-04-23T06:52:53;96064.59;;;11.30;100.00
70954;BME280;58618;47.490;8.736;2023-04-23T06:55:41;96057.69;;;11.39;100.00
70954;BME280;58618;47.490;8.736;2023-04-23T06:58:29;96053.88;;;11.51;100.00
70954;BME280;58618;47.490;8.736;2023-04-23T07:01:18;96050.88;;;11.71;100.00
70954;BME280;58618;47.490;8.736;2023-04-23T07:04:05;96053.19;;;12.08;100.00
70954;BME280;58618;47.490;8.736;2023-04-23T07:06:53;96056.44;;;12.14;100.00
70954;BME280;58618;47.490;8.736;2023-04-23T07:09:42;96047.19;;;12.21;100.00
70954;BME280;58618;47.490;8.736;2023-04-23T07:12:29;96041.28;;;12.21;100.00
70954;BME280;58618;47.490;8.736;2023-04-23T07:15:18;96034.00;;;12.45;100.00
70954;BME280;58618;47.490;8.736;2023-04-23T07:18:06;96024.72;;;12.75;100.00
70954;BME280;58618;47.490;8.736;2023-04-23T07:20:54;96033.22;;;12.67;100.00
70954;BME280;58618;47.490;8.736;2023-04-23T07:23:42;96024.03;;;12.92;100.00
70954;BME280;58618;47.490;8.736;2023-04-23T07:26:30;96030.59;;;12.89;100.00
70954;BME280;58618;47.490;8.736;2023-04-23T07:29:17;96036.47;;;12.81;100.00
70954;BME280;58618;47.490;8.736;2023-04-23T07:32:06;96028.00;;;12.89;100.00
70954;BME280;58618;47.490;8.736;2023-04-23T07:34:54;96018.91;;;13.00;100.00
70954;BME280;58618;47.490;8.736;2023-04-23T07:37:42;95998.88;;;13.15;100.00
70954;BME280;58618;47.490;8.736;2023-04-23T07:40:29;96008.28;;;13.84;100.00
70954;BME280;58618;47.490;8.736;2023-04-23T07:43:17;96003.69;;;14.50;100.00
70954;BME280;58618;47.490;8.736;2023-04-23T07:46:05;96011.59;;;14.62;100.00
70954;BME280;58618;47.490;8.736;2023-04-23T07:48:54;96002.16;;;14.32;100.00
70954;BME280;58618;47.490;8.736;2023-04-23T07:51:41;96003.59;;;14.85;100.00
70954;BME280;58618;47.490;8.736;2023-04-23T07:54:29;96010.38;;;14.34;100.00
70954;BME280;58618;47.490;8.736;2023-04-23T07:57:16;96008.84;;;14.33;100.00
70954;BME280;58618;47.490;8.736;2023-04-23T08:00:05;96010.97;;;15.41;99.68
70954;BME280;58618;47.490;8.736;2023-04-23T08:02:54;95991.50;;;15.77;98.32
70954;BME280;58618;47.490;8.736;2023-04-23T08:05:43;95994.81;;;15.86;96.28
70954;BME280;58618;47.490;8.736;2023-04-23T08:08:30;95991.94;;;15.49;99.26
70954;BME280;58618;47.490;8.736;2023-04-23T08:11:18;95995.09;;;15.05;96.84
70954;BME280;58618;47.490;8.736;2023-04-23T08:14:05;95979.31;;;15.69;94.46
70954;BME280;58618;47.490;8.736;2023-04-23T08:16:52;95981.84;;;14.98;89.99
70954;BME280;58618;47.490;8.736;2023-04-23T08:19:40;95979.09;;;15.23;93.11
70954;BME280;58618;47.490;8.736;2023-04-23T08:22:28;95983.31;;;15.37;92.72
70954;BME280;58618;47.490;8.736;2023-04-23T08:25:16;95985.16;;;15.07;91.88
70954;BME280;58618;47.490;8.736;2023-04-23T08:28:03;95982.66;;;14.81;96.53
70954;BME280;58618;47.490;8.736;2023-04-23T08:30:50;95970.91;;;14.84;91.31
70954;BME280;58618;47.490;8.736;2023-04-23T08:33:38;95976.16;;;15.63;95.36
70954;BME280;58618;47.490;8.736;2023-04-23T08:36:25;95970.06;;;15.80;91.16
70954;BME280;58618;47.490;8.736;2023-04-23T08:39:14;95973.34;;;15.68;89.30
70954;BME280;58618;47.490;8.736;2023-04-23T08:42:09;95954.19;;;16.26;91.58
70954;BME280;58618;47.490;8.736;2023-04-23T08:44:59;95959.63;;;16.91;85.38
70954;BME280;58618;47.490;8.736;2023-04-23T08:47:47;95969.81;;;16.26;82.19
70954;BME280;58618;47.490;8.736;2023-04-23T08:50:36;95970.16;;;16.82;85.47
70954;BME280;58618;47.490;8.736;2023-04-23T08:53:25;95973.31;;;16.42;87.48
70954;BME280;58618;47.490;8.736;2023-04-23T08:56:15;95970.16;;;16.94;77.16
70954;BME280;58618;47.490;8.736;2023-04-23T08:59:02;95971.81;;;15.88;77.26
70954;BME280;58618;47.490;8.736;2023-04-23T09:01:50;95963.94;;;16.29;85.43
70954;BME280;58618;47.490;8.736;2023-04-23T09:04:38;95967.75;;;16.77;75.32
70954;BME280;58618;47.490;8.736;2023-04-23T09:07:25;95961.25;;;16.95;75.01
70954;BME280;58618;47.490;8.736;2023-04-23T09:10:13;95963.22;;;17.10;77.67
70954;BME280;58618;47.490;8.736;2023-04-23T09:13:02;95961.38;;;17.23;77.23
70954;BME280;58618;47.490;8.736;2023-04-23T09:15:49;95964.94;;;16.94;81.18
70954;BME280;58618;47.490;8.736;2023-04-23T09:18:37;95965.59;;;16.91;82.10
70954;BME280;58618;47.490;8.736;2023-04-23T09:21:25;95953.56;;;16.41;83.71
70954;BME280;58618;47.490;8.736;2023-04-23T09:24:13;95962.50;;;16.20;82.68
70954;BME280;58618;47.490;8.736;2023-04-23T09:27:02;95953.13;;;16.84;80.14
70954;BME280;58618;47.490;8.736;2023-04-23T09:29:53;95953.00;;;17.17;79.34
70954;BME280;58618;47.490;8.736;2023-04-23T09:32:44;95941.91;;;17.20;75.95
70954;BME280;58618;47.490;8.736;2023-04-23T09:35:32;95942.06;;;17.76;72.85
70954;BME280;58618;47.490;8.736;2023-04-23T09:38:20;95936.91;;;16.55;78.44
70954;BME280;58618;47.490;8.736;2023-04-23T09:41:19;95930.59;;;16.56;80.69
70954;BME280;58618;47.490;8.736;2023-04-23T09:44:07;95928.91;;;16.84;77.33
70954;BME280;58618;47.490;8.736;2023-04-23T09:46:56;95916.03;;;16.30;79.09
70954;BME280;58618;47.490;8.736;2023-04-23T09:49:52;95911.50;;;17.24;76.92
70954;BME280;58618;47.490;8.736;2023-04-23T09:52:39;95903.50;;;17.17;83.98
70954;BME280;58618;47.490;8.736;2023-04-23T09:55:28;95895.53;;;17.66;74.52
70954;BME280;58618;47.490;8.736;2023-04-23T09:58:23;95896.28;;;18.22;72.32
70954;BME280;58618;47.490;8.736;2023-04-23T10:01:11;95891.78;;;16.63;77.07
70954;BME280;58618;47.490;8.736;2023-04-23T10:04:01;95881.41;;;17.39;74.32
70954;BME280;58618;47.490;8.736;2023-04-23T10:06:52;95880.22;;;17.24;73.67
70954;BME280;58618;47.490;8.736;2023-04-23T10:09:40;95882.84;;;17.92;70.48
70954;BME280;58618;47.490;8.736;2023-04-23T10:12:28;95884.59;;;17.08;73.69
70954;BME280;58618;47.490;8.736;2023-04-23T10:15:15;95869.56;;;17.97;69.30
70954;BME280;58618;47.490;8.736;2023-04-23T10:18:03;95871.72;;;17.95;70.10
70954;BME280;58618;47.490;8.736;2023-04-23T10:20:53;95882.78;;;18.51;65.80
70954;BME280;58618;47.490;8.736;2023-04-23T10:23:43;95883.00;;;17.99;72.28
70954;BME280;58618;47.490;8.736;2023-04-23T10:26:30;95883.03;;;18.93;64.21
70954;BME280;58618;47.490;8.736;2023-04-23T10:29:20;95879.31;;;18.00;69.90
70954;BME280;58618;47.490;8.736;2023-04-23T10:32:10;95875.47;;;18.26;72.00
70954;BME280;58618;47.490;8.736;2023-04-23T10:34:58;95871.19;;;17.74;75.24
70954;BME280;58618;47.490;8.736;2023-04-23T10:37:47;95860.88;;;18.40;69.34
70954;BME280;58618;47.490;8.736;2023-04-23T10:40:36;95863.94;;;18.74;69.71
70954;BME280;58618;47.490;8.736;2023-04-23T10:43:26;95862.44;;;18.57;69.96
70954;BME280;58618;47.490;8.736;2023-04-23T10:46:26;95851.63;;;18.11;72.59
70954;BME280;58618;47.490;8.736;2023-04-23T10:49:14;95853.97;;;18.79;65.75
70954;BME280;58618;47.490;8.736;2023-04-23T10:52:06;95847.94;;;18.94;65.44
70954;BME280;58618;47.490;8.736;2023-04-23T10:54:58;95855.41;;;19.12;64.11
70954;BME280;58618;47.490;8.736;2023-04-23T10:57:57;95848.22;;;18.89;65.08
70954;BME280;58618;47.490;8.736;2023-04-23T11:00:45;95847.81;;;18.87;62.75
70954;BME280;58618;47.490;8.736;2023-04-23T11:03:36;95848.31;;;18.77;65.45
70954;BME280;58618;47.490;8.736;2023-04-23T11:06:50;95835.31;;;18.96;67.65
70954;BME280;58618;47.490;8.736;2023-04-23T11:09:39;95821.59;;;19.19;63.40
70954;BME280;58618;47.490;8.736;2023-04-23T11:12:32;95829.06;;;19.20;66.24
70954;BME280;58618;47.490;8.736;2023-04-23T11:15:20;95831.47;;;19.10;62.18
70954;BME280;58618;47.490;8.736;2023-04-23T11:18:07;95822.41;;;18.88;69.90
70954;BME280;58618;47.490;8.736;2023-04-23T11:20:55;95829.47;;;18.68;73.75
70954;BME280;58618;47.490;8.736;2023-04-23T11:23:44;95827.47;;;18.96;69.20
70954;BME280;58618;47.490;8.736;2023-04-23T11:26:33;95817.34;;;18.60;67.83
70954;BME280;58618;47.490;8.736;2023-04-23T11:29:23;95818.34;;;18.71;66.39
70954;BME280;58618;47.490;8.736;2023-04-23T11:32:12;95815.75;;;18.90;68.30
70954;BME280;58618;47.490;8.736;2023-04-23T11:35:01;95810.53;;;18.90;63.80
70954;BME280;58618;47.490;8.736;2023-04-23T11:37:50;95811.75;;;18.77;65.31
70954;BME280;58618;47.490;8.736;2023-04-23T11:40:37;95813.41;;;18.85;66.42
70954;BME280;58618;47.490;8.736;2023-04-23T11:43:27;95802.91;;;18.82;64.37
70954;BME280;58618;47.490;8.736;2023-04-23T11:46:16;95793.91;;;18.48;64.81
70954;BME280;58618;47.490;8.736;2023-04-23T11:49:04;95794.94;;;18.59;65.08
70954;BME280;58618;47.490;8.736;2023-04-23T11:51:54;95790.31;;;18.37;68.34
70954;BME280;58618;47.490;8.736;2023-04-23T11:54:45;95790.59;;;18.00;68.18
70954;BME280;58618;47.490;8.736;2023-04-23T11:57:34;95797.13;;;17.94;70.68
70954;BME280;58618;47.490;8.736;2023-04-23T12:00:23;95784.00;;;17.75;72.40
70954;BME280;58618;47.490;8.736;2023-04-23T12:03:12;95769.41;;;17.30;73.58
70954;BME280;58618;47.490;8.736;2023-04-23T12:06:01;95772.47;;;17.33;70.43
70954;BME280;58618;47.490;8.736;2023-04-23T12:08:48;95776.44;;;17.14;70.28
70954;BME280;58618;47.490;8.736;2023-04-23T12:11:36;95766.69;;;17.11;71.27
70954;BME280;58618;47.490;8.736;2023-04-23T12:14:26;95758.06;;;17.23;70.66
70954;BME280;58618;47.490;8.736;2023-04-23T12:17:14;95764.41;;;17.81;75.22
70954;BME280;58618;47.490;8.736;2023-04-23T12:20:04;95758.22;;;18.21;68.62
70954;BME280;58618;47.490;8.736;2023-04-23T12:22:52;95764.41;;;18.12;67.35
70954;BME280;58618;47.490;8.736;2023-04-23T12:25:39;95759.00;;;18.05;67.64
70954;BME280;58618;47.490;8.736;2023-04-23T12:28:28;95760.94;;;17.77;68.31
70954;BME280;58618;47.490;8.736;2023-04-23T12:31:18;95753.09;;;17.77;67.26
70954;BME280;58618;47.490;8.736;2023-04-23T12:34:07;95750.97;;;18.30;65.59
70954;BME280;58618;47.490;8.736;2023-04-23T12:36:55;95750.66;;;18.31;64.45
70954;BME280;58618;47.490;8.736;2023-04-23T12:39:43;95735.97;;;17.76;67.12
70954;BME280;58618;47.490;8.736;2023-04-23T12:42:31;95731.66;;;17.68;69.40
70954;BME280;58618;47.490;8.736;2023-04-23T12:45:18;95725.53;;;17.60;70.29
70954;BME280;58618;47.490;8.736;2023-04-23T12:48:05;95724.25;;;17.70;66.41
70954;BME280;58618;47.490;8.736;2023-04-23T12:50:53;95721.16;;;17.80;66.06
70954;BME280;58618;47.490;8.736;2023-04-23T12:53:41;95720.88;;;17.85;64.11
70954;BME280;58618;47.490;8.736;2023-04-23T12:56:29;95712.97;;;17.66;67.80
70954;BME280;58618;47.490;8.736;2023-04-23T12:59:16;95710.81;;;17.40;71.68
70954;BME280;58618;47.490;8.736;2023-04-23T13:02:04;95704.53;;;17.57;68.74
70954;BME280;58618;47.490;8.736;2023-04-23T13:04:52;95714.31;;;17.60;69.58
70954;BME280;58618;47.490;8.736;2023-04-23T13:07:45;95705.56;;;17.68;72.34
70954;BME280;58618;47.490;8.736;2023-04-23T13:10:35;95701.75;;;18.12;63.15
70954;BME280;58618;47.490;8.736;2023-04-23T13:13:27;95696.94;;;18.14;66.84
70954;BME280;58618;47.490;8.736;2023-04-23T13:16:15;95688.41;;;18.52;64.77
70954;BME280;58618;47.490;8.736;2023-04-23T13:19:03;95677.31;;;18.75;61.38
70954;BME280;58618;47.490;8.736;2023-04-23T13:21:52;95655.66;;;18.74;61.43
70954;BME280;58618;47.490;8.736;2023-04-23T13:24:40;95658.13;;;18.86;59.65
70954;BME280;58618;47.490;8.736;2023-04-23T13:27:29;95660.97;;;19.20;59.13
70954;BME280;58618;47.490;8.736;2023-04-23T13:30:17;95659.50;;;18.99;59.60
70954;BME280;58618;47.490;8.736;2023-04-23T13:33:04;95653.03;;;18.93;61.35
70954;BME280;58618;47.490;8.736;2023-04-23T13:35:52;95650.25;;;19.06;58.76
70954;BME280;58618;47.490;8.736;2023-04-23T13:38:41;95659.19;;;19.24;57.96
70954;BME280;58618;47.490;8.736;2023-04-23T13:41:28;95670.22;;;18.94;62.22
70954;BME280;58618;47.490;8.736;2023-04-23T13:44:17;95675.00;;;18.70;62.65
70954;BME280;58618;47.490;8.736;2023-04-23T13:47:05;95684.09;;;18.06;75.95
70954;BME280;58618;47.490;8.736;2023-04-23T13:49:52;95695.16;;;17.24;89.00
70954;BME280;58618;47.490;8.736;2023-04-23T13:52:39;95701.06;;;16.54;100.00
70954;BME280;58618;47.490;8.736;2023-04-23T13:55:27;95670.50;;;16.38;100.00
70954;BME280;58618;47.490;8.736;2023-04-23T13:58:14;95657.88;;;15.76;96.15
70954;BME280;58618;47.490;8.736;2023-04-23T14:01:03;95648.59;;;15.18;100.00
70954;BME280;58618;47.490;8.736;2023-04-23T14:03:51;95623.84;;;15.81;100.00
70954;BME280;58618;47.490;8.736;2023-04-23T14:06:38;95633.91;;;16.07;100.00
70954;BME280;58618;47.490;8.736;2023-04-23T14:09:25;95627.56;;;16.32;100.00
70954;BME280;58618;47.490;8.736;2023-04-23T14:12:14;95625.19;;;15.75;100.00
70954;BME280;58618;47.490;8.736;2023-04-23T14:15:04;95619.44;;;15.57;100.00
70954;BME280;58618;47.490;8.736;2023-04-23T14:17:53;95622.84;;;15.98;100.00
70954;BME280;58618;47.490;8.736;2023-04-23T14:20:41;95610.28;;;16.00;100.00
70954;BME280;58618;47.490;8.736;2023-04-23T14:23:43;95616.84;;;15.70;100.00
70954;BME280;58618;47.490;8.736;2023-04-23T14:26:34;95606.84;;;15.84;100.00
70954;BME280;58618;47.490;8.736;2023-04-23T14:29:24;95607.28;;;15.61;100.00
70954;BME280;58618;47.490;8.736;2023-04-23T14:32:15;95622.41;;;15.35;100.00
70954;BME280;58618;47.490;8.736;2023-04-23T14:35:04;95612.47;;;15.49;100.00
70954;BME280;58618;47.490;8.736;2023-04-23T14:37:52;95622.19;;;15.28;100.00
70954;BME280;58618;47.490;8.736;2023-04-23T14:40:39;95612.28;;;14.97;100.00
70954;BME280;58618;47.490;8.736;2023-04-23T14:43:26;95618.59;;;14.63;100.00
70954;BME280;58618;47.490;8.736;2023-04-23T14:46:14;95615.59;;;14.73;100.00